Gent, België

9:01 PM CET op 30 januari 2015 (GMT +0100)
Wachtebeke Belgisch/Nederlandse grens | Change Station
CLOSE
Current Station
Persoonlijk weerstation
Location: Wachtebeke, VLAAMS GEWEST
Geometrische hoogte: 16 ft
Nabije weerstations

Hoogte 16 ft 51.17 °N, 3.86 °E | Updated 29 seconds ago

Mostly Cloudy
Merendeels bewolkt
36.5 °F
Voelt als 36 °F
N
0.9
Wind Variabel Wind van WZW
Gusts 2.5 mijl/u

Vandaag
Hoog -- | Laag -- °F
--% Kans op neerslag
Gisteren
Hoog -- | Laag -- °F
Precip. -- inches
8:25 AM 5:31 PM
Wassende maan, 84% visible
Druk 28.88 inches
Zicht 6.2 mijlen
Wolken Merendeels bewolkt 1800 ft
Merendeels bewolkt 4300 ft
Gevoelstemperatuur 36 °F
Dauwpunt 33 °F
Vochtigheid 88%
Neerslag 0.00 inches
Dikte sneeuw Niet beschikbaar.
UV 0.0 van de 12
Pollen Niet beschikbaar.
Luchtkwaliteit Niet beschikbaar.
Flu Activity Niet beschikbaar.
METAR EBAW 301950Z 23007KT 9999 BKN018 BKN043 03/M00 Q0978 NOSIG

More Conditions Fewer Conditions

Druk 28.88 inches
Zicht 6.2 mijlen
Wolken Merendeels bewolkt 1800 ft
Merendeels bewolkt 4300 ft
Gevoelstemperatuur 36 °F
Dauwpunt 33 °F
Vochtigheid 88%
Neerslag 0.00 inches
Dikte sneeuw Niet beschikbaar.
UV 0.0 van de 12
Pollen Niet beschikbaar.
Luchtkwaliteit Niet beschikbaar.
Flu Activity Niet beschikbaar.
METAR EBAW 301950Z 23007KT 9999 BKN018 BKN043 03/M00 Q0978 NOSIG

More Conditions Fewer Conditions

10-Day Weather Forecast

Almanac

Astronomie

Jan. 30, 2015 Opkomst Ondergang
Werkelijke tijd
Burgerlijke schemering
Nautische schemering
Astronomische schemering
Maan
Golflengte van het zichtbare licht
Daglengte
Tomorrow will be .
, % of the Moon is Illuminated

Extremen vandaag

Country Highs Country Lows

Community

WunderPhotos

Upload Photos

1,791,882 foto’s ge-upload!

WunderBlogs® & News

Nearby

Luchtkwaliteit

  Luchtkwaliteit LK-index Verontreinigende stof
Not available.

Dikte sneeuw

Station Depth Geometrische hoogte

Aardbevingen

Stad Distance Mag. Time & Date
Minimum magnitude displayed is 2.5.

Watertemperatuur langs de kust

Plaats Temperatuur

Nabije weerstations